createdAt,value
2019-05-07T00:01:37.218Z,4.70
2019-05-07T00:04:03.966Z,5.60
2019-05-07T00:06:32.574Z,4.80
2019-05-07T00:08:57.630Z,5.10
2019-05-07T00:11:24.522Z,6.62
2019-05-07T00:13:52.261Z,5.60
2019-05-07T00:16:18.224Z,4.50
2019-05-07T00:18:44.983Z,4.73
2019-05-07T00:21:12.601Z,4.67
2019-05-07T00:23:38.457Z,4.30
2019-05-07T00:26:05.194Z,4.40
2019-05-07T00:28:32.586Z,5.90
2019-05-07T00:30:58.678Z,5.17
2019-05-07T00:33:25.534Z,5.30
2019-05-07T00:35:57.332Z,5.73
2019-05-07T00:38:24.102Z,7.63
2019-05-07T00:40:57.149Z,5.50
2019-05-07T00:43:26.578Z,5.33
2019-05-07T00:45:57.261Z,6.47
2019-05-07T00:48:23.718Z,5.90
2019-05-07T00:50:52.754Z,5.30
2019-05-07T00:53:18.968Z,5.43
2019-05-07T00:55:45.706Z,5.53
2019-05-07T00:58:13.268Z,4.90
2019-05-07T01:00:39.170Z,5.10
2019-05-07T01:03:06.049Z,4.90
2019-05-07T01:05:32.793Z,5.10
2019-05-07T01:07:59.522Z,5.20
2019-05-07T01:10:26.262Z,5.23
2019-05-07T01:12:53.273Z,5.13
2019-05-07T01:15:28.837Z,4.93
2019-05-07T01:17:46.483Z,5.17
2019-05-07T01:20:13.234Z,5.07
2019-05-07T01:22:42.300Z,5.17
2019-05-07T01:25:06.790Z,5.10
2019-05-07T01:27:33.526Z,4.00
2019-05-07T01:30:02.557Z,4.90
2019-05-07T01:32:33.159Z,4.70
2019-05-07T01:35:03.275Z,4.60
2019-05-07T01:37:29.995Z,4.70
2019-05-07T01:39:56.733Z,5.20
2019-05-07T01:42:23.522Z,4.37
2019-05-07T01:44:52.672Z,4.90
2019-05-07T01:47:16.994Z,3.67
2019-05-07T01:49:43.734Z,5.17
2019-05-07T01:52:10.478Z,4.93
2019-05-07T01:54:37.261Z,4.60
2019-05-07T01:57:03.994Z,5.67
2019-05-07T01:59:32.148Z,4.90
2019-05-07T02:01:59.101Z,5.60
2019-05-07T02:04:32.737Z,5.33
2019-05-07T02:07:04.971Z,6.50
2019-05-07T02:09:37.552Z,5.70
2019-05-07T02:12:10.098Z,4.97
2019-05-07T02:14:36.878Z,4.20
2019-05-07T02:17:03.611Z,4.33
2019-05-07T02:19:30.761Z,5.10
2019-05-07T02:21:57.081Z,4.77
2019-05-07T02:24:23.806Z,5.27
2019-05-07T02:26:52.115Z,4.90
2019-05-07T02:29:17.315Z,5.13
2019-05-07T02:31:44.542Z,5.20
2019-05-07T02:34:13.783Z,5.50
2019-05-07T02:36:37.536Z,5.63
2019-05-07T02:39:25.073Z,5.83
2019-05-07T02:41:54.258Z,5.80
2019-05-07T02:44:18.576Z,5.33
2019-05-07T02:46:52.826Z,5.80
2019-05-07T02:49:24.030Z,6.27
2019-05-07T02:52:04.149Z,6.00
2019-05-07T02:54:48.208Z,4.60
2019-05-07T02:57:16.964Z,4.80
2019-05-07T02:59:44.065Z,4.93
2019-05-07T03:02:08.453Z,5.90
2019-05-07T03:04:35.200Z,6.10
2019-05-07T03:07:03.963Z,5.90
2019-05-07T03:09:28.669Z,5.60
2019-05-07T03:11:55.424Z,5.50
2019-05-07T03:14:23.360Z,6.70
2019-05-07T03:16:49.706Z,6.97
2019-05-07T03:19:15.629Z,6.87
2019-05-07T03:21:48.186Z,6.60
2019-05-07T03:24:19.457Z,6.70
2019-05-07T03:26:46.233Z,6.77
2019-05-07T03:29:16.926Z,5.43
2019-05-07T03:31:56.347Z,6.50
2019-05-07T03:34:45.657Z,6.72
2019-05-07T03:37:07.693Z,7.28
2019-05-07T03:39:34.395Z,6.43
2019-05-07T03:42:03.459Z,6.07
2019-05-07T03:44:37.503Z,6.30
2019-05-07T03:47:09.962Z,5.73
2019-05-07T03:49:38.034Z,5.93
2019-05-07T03:52:04.857Z,6.67
2019-05-07T03:54:34.057Z,6.60
2019-05-07T03:57:04.200Z,6.87
2019-05-07T03:59:25.021Z,6.13
2019-05-07T04:01:53.782Z,5.87
2019-05-07T04:04:18.505Z,7.30
2019-05-07T04:06:45.255Z,7.60
2019-05-07T04:09:13.283Z,6.47
2019-05-07T04:11:38.708Z,6.00
2019-05-07T04:14:05.438Z,6.40
2019-05-07T04:16:35.193Z,6.10
2019-05-07T04:19:03.907Z,6.00
2019-05-07T04:21:28.656Z,6.20
2019-05-07T04:24:13.462Z,6.40
2019-05-07T04:26:42.814Z,5.77
2019-05-07T04:29:09.343Z,6.23
2019-05-07T04:31:38.363Z,5.03
2019-05-07T04:34:09.071Z,6.55
2019-05-07T04:36:39.822Z,6.23
2019-05-07T04:39:07.119Z,5.57
2019-05-07T04:41:33.869Z,5.53
2019-05-07T04:44:03.421Z,5.43
2019-05-07T04:46:27.334Z,5.03
2019-05-07T04:48:54.060Z,6.10
2019-05-07T04:51:25.874Z,4.90
2019-05-07T04:53:57.253Z,6.17
2019-05-07T04:56:24.251Z,5.50
2019-05-07T04:58:55.236Z,6.13
2019-05-07T05:01:23.437Z,5.70
2019-05-07T05:03:49.232Z,5.60
2019-05-07T05:06:16.019Z,6.00
2019-05-07T05:08:43.524Z,5.23
2019-05-07T05:11:09.485Z,6.30
2019-05-07T05:13:36.226Z,6.30
2019-05-07T05:16:22.496Z,5.87
2019-05-07T05:18:49.006Z,5.70
2019-05-07T05:21:22.770Z,6.03
2019-05-07T05:23:58.653Z,6.17
2019-05-07T05:26:25.398Z,6.63
2019-05-07T05:28:52.610Z,6.90
2019-05-07T05:31:18.930Z,6.47
2019-05-07T05:33:45.663Z,6.80
2019-05-07T05:36:12.779Z,7.13
2019-05-07T05:38:39.176Z,6.80
2019-05-07T05:41:05.914Z,6.63
2019-05-07T05:43:54.746Z,7.27
2019-05-07T05:46:22.795Z,6.90
2019-05-07T05:48:49.399Z,6.57
2019-05-07T05:51:24.070Z,6.73
2019-05-07T05:53:56.094Z,7.70
2019-05-07T05:56:27.350Z,7.23
2019-05-07T05:59:02.819Z,6.80
2019-05-07T06:01:39.265Z,7.57
2019-05-07T06:04:17.346Z,6.90
2019-05-07T06:07:07.906Z,7.23
2019-05-07T06:09:32.762Z,6.87
2019-05-07T06:12:18.134Z,5.93
2019-05-07T06:14:49.048Z,6.43
2019-05-07T06:17:37.223Z,6.20
2019-05-07T06:20:15.028Z,7.67
2019-05-07T06:23:02.221Z,6.87
2019-05-07T06:25:28.979Z,6.87
2019-05-07T06:27:55.685Z,6.77
2019-05-07T06:30:22.842Z,8.27
2019-05-07T06:32:49.230Z,7.90
2019-05-07T06:35:16.002Z,7.03
2019-05-07T06:37:43.000Z,7.03
2019-05-07T06:40:15.298Z,8.00
2019-05-07T06:42:52.631Z,6.67
2019-05-07T06:45:22.821Z,7.47
2019-05-07T06:47:49.402Z,6.23
2019-05-07T06:50:16.167Z,6.87
2019-05-07T06:52:42.910Z,7.50
2019-05-07T06:55:09.649Z,7.90
2019-05-07T06:57:36.397Z,7.20
2019-05-07T07:00:08.144Z,7.47
2019-05-07T07:02:56.198Z,6.80
2019-05-07T07:05:28.603Z,6.93
2019-05-07T07:07:59.078Z,7.30
2019-05-07T07:10:44.795Z,6.67
2019-05-07T07:13:12.005Z,6.97
2019-05-07T07:15:38.270Z,6.87
2019-05-07T07:18:05.021Z,7.70
2019-05-07T07:20:32.649Z,6.90
2019-05-07T07:22:58.485Z,6.07
2019-05-07T07:25:25.357Z,7.03
2019-05-07T07:27:52.162Z,7.27
2019-05-07T07:30:27.266Z,6.70
2019-05-07T07:32:54.086Z,6.17
2019-05-07T07:35:22.557Z,6.20
2019-05-07T07:37:47.727Z,6.87
2019-05-07T07:40:22.424Z,5.87
2019-05-07T07:42:47.355Z,6.10
2019-05-07T07:45:15.710Z,6.63
2019-05-07T07:47:42.483Z,6.83
2019-05-07T07:50:09.338Z,7.23
2019-05-07T07:52:36.066Z,6.60
2019-05-07T07:55:02.858Z,7.33
2019-05-07T07:57:35.479Z,6.87
2019-05-07T08:00:08.921Z,6.90
2019-05-07T08:02:38.646Z,7.40
2019-05-07T08:05:05.418Z,7.00
2019-05-07T08:07:33.099Z,8.67
2019-05-07T08:09:58.875Z,7.43
2019-05-07T08:12:25.616Z,7.40
2019-05-07T08:14:52.330Z,7.30
2019-05-07T08:17:19.092Z,6.40
2019-05-07T08:19:45.810Z,7.37
2019-05-07T08:22:12.570Z,7.10
2019-05-07T08:24:39.290Z,7.17
2019-05-07T08:27:06.029Z,7.27
2019-05-07T08:29:32.845Z,6.77
2019-05-07T08:32:14.686Z,5.90
2019-05-07T08:34:47.550Z,6.23
2019-05-07T08:37:14.347Z,6.60
2019-05-07T08:39:42.917Z,6.97
2019-05-07T08:42:08.009Z,6.20
2019-05-07T08:44:40.273Z,6.80
2019-05-07T08:47:13.731Z,6.80
2019-05-07T08:49:43.236Z,7.00
2019-05-07T08:52:07.401Z,6.23
2019-05-07T08:54:34.110Z,6.43
2019-05-07T08:57:01.951Z,6.20
2019-05-07T08:59:27.741Z,5.70
2019-05-07T09:01:54.465Z,5.80
2019-05-07T09:04:22.003Z,5.67
2019-05-07T09:06:47.961Z,5.40
2019-05-07T09:09:14.720Z,5.60
2019-05-07T09:11:42.586Z,6.20
2019-05-07T09:14:08.222Z,4.70
2019-05-07T09:16:35.059Z,4.37
2019-05-07T09:19:02.199Z,5.50
2019-05-07T09:21:28.580Z,5.30
2019-05-07T09:23:55.335Z,5.47
2019-05-07T09:26:25.982Z,5.47
2019-05-07T09:29:07.976Z,6.03
2019-05-07T09:31:42.303Z,4.80
2019-05-07T09:34:09.050Z,5.50
2019-05-07T09:36:42.468Z,6.40
2019-05-07T09:39:08.363Z,5.60
2019-05-07T09:41:35.082Z,5.87
2019-05-07T09:44:03.134Z,5.50
2019-05-07T09:46:28.570Z,5.00
2019-05-07T09:48:55.351Z,5.70
2019-05-07T09:51:22.666Z,5.65
2019-05-07T09:53:48.861Z,4.80
2019-05-07T09:56:15.601Z,5.53
2019-05-07T09:58:42.695Z,5.57
2019-05-07T10:01:09.185Z,5.40
2019-05-07T10:03:35.938Z,5.70
2019-05-07T10:06:02.753Z,5.50
2019-05-07T10:08:31.774Z,4.40
2019-05-07T10:10:56.693Z,4.07
2019-05-07T10:13:28.469Z,4.73
2019-05-07T10:15:55.190Z,4.27
2019-05-07T10:18:22.868Z,3.90
2019-05-07T10:20:48.674Z,3.43
2019-05-07T10:23:19.475Z,3.80
2019-05-07T10:25:48.717Z,3.60
2019-05-07T10:28:15.498Z,3.37
2019-05-07T10:30:42.904Z,3.10
2019-05-07T10:33:09.374Z,4.40
2019-05-07T10:35:36.147Z,3.63
2019-05-07T10:38:02.870Z,3.10
2019-05-07T10:40:29.756Z,3.60
2019-05-07T10:42:56.526Z,3.83
2019-05-07T10:45:42.910Z,2.97
2019-05-07T10:48:14.687Z,4.33
2019-05-07T10:50:43.026Z,4.13
2019-05-07T10:53:09.750Z,4.37
2019-05-07T10:55:36.507Z,3.80
2019-05-07T10:58:03.246Z,3.60
2019-05-07T11:00:30.068Z,3.53
2019-05-07T11:02:56.798Z,3.20
2019-05-07T11:05:23.551Z,3.80
2019-05-07T11:07:50.283Z,4.10
2019-05-07T11:10:17.054Z,3.03
2019-05-07T11:12:43.790Z,4.07
2019-05-07T11:15:12.422Z,4.20
2019-05-07T11:17:49.050Z,3.70
2019-05-07T11:20:15.894Z,3.50
2019-05-07T11:22:42.940Z,4.10
2019-05-07T11:25:09.381Z,3.80
2019-05-07T11:27:36.112Z,3.92
2019-05-07T11:30:03.442Z,3.40
2019-05-07T11:32:32.035Z,3.47
2019-05-07T11:34:57.035Z,3.47
2019-05-07T11:37:23.764Z,4.23
2019-05-07T11:39:52.340Z,4.03
2019-05-07T11:42:39.931Z,3.80
2019-05-07T11:45:06.732Z,3.93
2019-05-07T11:47:33.502Z,3.67
2019-05-07T11:50:06.165Z,3.40
2019-05-07T11:52:35.908Z,2.70
2019-05-07T11:55:03.154Z,3.03
2019-05-07T11:57:28.310Z,2.70
2019-05-07T11:59:55.062Z,3.43
2019-05-07T12:02:22.629Z,4.33
2019-05-07T12:04:48.643Z,4.20
2019-05-07T12:07:15.379Z,3.63
2019-05-07T12:09:42.216Z,3.90
2019-05-07T12:12:08.954Z,4.57
2019-05-07T12:14:35.718Z,3.63
2019-05-07T12:17:02.798Z,4.27
2019-05-07T12:19:29.190Z,3.83
2019-05-07T12:21:56.194Z,4.10
2019-05-07T12:24:22.926Z,4.70
2019-05-07T12:26:49.701Z,4.13
2019-05-07T12:29:16.446Z,4.17
2019-05-07T12:31:55.732Z,3.40
2019-05-07T12:34:28.274Z,4.60
2019-05-07T12:36:55.031Z,4.40
2019-05-07T12:39:22.020Z,3.83
2019-05-07T12:41:48.482Z,3.70
2019-05-07T12:44:15.215Z,4.47
2019-05-07T12:46:42.420Z,3.80
2019-05-07T12:49:08.711Z,4.23
2019-05-07T12:51:57.079Z,4.12
2019-05-07T12:54:36.097Z,4.40
2019-05-07T12:56:59.465Z,4.50
2019-05-07T12:59:26.199Z,4.27
2019-05-07T13:02:15.919Z,4.80
2019-05-07T13:04:29.087Z,3.80
2019-05-07T13:07:02.486Z,4.33
2019-05-07T13:09:28.061Z,4.50
2019-05-07T13:11:54.794Z,3.90
2019-05-07T13:14:21.888Z,4.43
2019-05-07T13:16:48.310Z,4.47
2019-05-07T13:19:15.046Z,4.03
2019-05-07T13:21:47.436Z,4.50
2019-05-07T13:24:08.602Z,3.90
2019-05-07T13:26:35.353Z,4.30
2019-05-07T13:29:02.515Z,4.07
2019-05-07T13:31:28.960Z,3.83
2019-05-07T13:33:55.784Z,4.40
2019-05-07T13:36:22.508Z,4.10
2019-05-07T13:39:08.954Z,3.93
2019-05-07T13:41:53.775Z,3.80
2019-05-07T13:44:28.158Z,3.90
2019-05-07T13:47:14.510Z,3.60
2019-05-07T13:49:42.775Z,4.20
2019-05-07T13:52:08.110Z,4.40
2019-05-07T13:54:34.858Z,4.23
2019-05-07T13:57:01.590Z,4.20
2019-05-07T13:59:28.349Z,4.53
2019-05-07T14:02:05.053Z,4.70
2019-05-07T14:04:32.521Z,3.90
2019-05-07T14:07:01.789Z,4.90
2019-05-07T14:09:26.507Z,4.87
2019-05-07T14:11:53.250Z,4.43
2019-05-07T14:14:22.174Z,3.90
2019-05-07T14:16:46.735Z,4.57
2019-05-07T14:19:13.506Z,4.03
2019-05-07T14:21:42.177Z,3.87
2019-05-07T14:24:07.003Z,4.37
2019-05-07T14:26:33.722Z,4.10
2019-05-07T14:29:01.864Z,4.73
2019-05-07T14:31:27.202Z,4.37
2019-05-07T14:33:57.754Z,4.13
2019-05-07T14:36:31.825Z,4.80
2019-05-07T14:38:56.485Z,4.43
2019-05-07T14:41:25.685Z,4.10
2019-05-07T14:43:54.030Z,3.87
2019-05-07T14:46:20.778Z,4.30
2019-05-07T14:48:47.490Z,4.55
2019-05-07T14:51:14.236Z,4.60
2019-05-07T14:53:41.158Z,4.67
2019-05-07T14:56:07.991Z,4.72
2019-05-07T14:58:34.717Z,4.67
2019-05-07T15:01:02.475Z,4.50
2019-05-07T15:03:28.217Z,4.20
2019-05-07T15:05:54.972Z,3.90
2019-05-07T15:08:22.072Z,4.07
2019-05-07T15:10:48.766Z,4.17
2019-05-07T15:13:15.493Z,3.80
2019-05-07T15:15:42.241Z,4.10
2019-05-07T15:18:15.742Z,3.83
2019-05-07T15:20:41.953Z,3.90
2019-05-07T15:23:13.527Z,3.87
2019-05-07T15:25:40.292Z,4.33
2019-05-07T15:28:07.081Z,4.00
2019-05-07T15:30:42.311Z,3.87
2019-05-07T15:33:09.406Z,3.60
2019-05-07T15:35:36.147Z,4.07
2019-05-07T15:38:02.898Z,4.00
2019-05-07T15:40:29.614Z,4.60
2019-05-07T15:42:56.430Z,3.23
2019-05-07T15:45:23.158Z,3.50
2019-05-07T15:47:50.974Z,3.83
2019-05-07T15:50:17.761Z,4.67
2019-05-07T15:52:58.655Z,3.97
2019-05-07T15:55:18.998Z,3.93
2019-05-07T15:57:45.795Z,4.83
2019-05-07T16:00:13.175Z,3.53
2019-05-07T16:02:41.478Z,3.87
2019-05-07T16:05:08.278Z,4.03
2019-05-07T16:07:35.101Z,4.10
2019-05-07T16:10:01.872Z,3.20
2019-05-07T16:12:28.941Z,3.97
2019-05-07T16:14:55.665Z,4.40
2019-05-07T16:17:32.463Z,4.10
2019-05-07T16:19:57.299Z,4.80
2019-05-07T16:22:27.671Z,4.37
2019-05-07T16:24:54.546Z,4.03
2019-05-07T16:27:22.454Z,3.93
2019-05-07T16:29:48.065Z,4.13
2019-05-07T16:32:14.806Z,4.27
2019-05-07T16:34:42.936Z,3.77
2019-05-07T16:37:08.380Z,3.90
2019-05-07T16:39:35.189Z,3.97
2019-05-07T16:42:01.995Z,3.60
2019-05-07T16:44:28.715Z,4.23
2019-05-07T16:46:55.542Z,4.00
2019-05-07T16:49:22.454Z,3.83
2019-05-07T16:51:49.243Z,4.20
2019-05-07T16:54:16.062Z,3.57
2019-05-07T16:56:48.701Z,4.00
2019-05-07T16:59:15.426Z,3.50
2019-05-07T17:01:42.873Z,3.97
2019-05-07T17:04:09.055Z,3.60
2019-05-07T17:06:35.926Z,3.47
2019-05-07T17:09:14.009Z,3.90
2019-05-07T17:11:40.802Z,4.40
2019-05-07T17:14:07.542Z,4.40
2019-05-07T17:16:34.325Z,3.93
2019-05-07T17:19:02.559Z,3.90
2019-05-07T17:21:27.873Z,4.43
2019-05-07T17:23:54.662Z,4.50
2019-05-07T17:26:23.212Z,4.40
2019-05-07T17:28:48.370Z,4.40
2019-05-07T17:31:15.190Z,4.20
2019-05-07T17:33:42.551Z,3.60
2019-05-07T17:36:08.862Z,3.50
2019-05-07T17:38:35.628Z,4.10
2019-05-07T17:41:10.775Z,4.00
2019-05-07T17:43:29.109Z,4.37
2019-05-07T17:45:55.915Z,4.93
2019-05-07T17:48:23.272Z,4.93
2019-05-07T17:50:56.218Z,5.13
2019-05-07T17:53:23.019Z,4.90
2019-05-07T17:55:49.760Z,5.17
2019-05-07T17:58:16.628Z,4.73
2019-05-07T18:00:43.378Z,4.60
2019-05-07T18:03:32.227Z,4.80
2019-05-07T18:05:56.878Z,4.60
2019-05-07T18:08:23.738Z,4.37
2019-05-07T18:10:50.466Z,4.87
2019-05-07T18:13:17.226Z,4.73
2019-05-07T18:15:44.046Z,4.93
2019-05-07T18:18:12.837Z,4.23
2019-05-07T18:20:37.594Z,4.80
2019-05-07T18:23:06.895Z,4.50
2019-05-07T18:25:32.409Z,4.00
2019-05-07T18:27:58.061Z,5.17
2019-05-07T18:30:24.906Z,4.50
2019-05-07T18:32:55.991Z,4.20
2019-05-07T18:35:23.096Z,4.60
2019-05-07T18:37:52.577Z,4.50
2019-05-07T18:40:17.495Z,4.50
2019-05-07T18:42:44.237Z,4.37
2019-05-07T18:45:12.437Z,5.37
2019-05-07T18:47:38.961Z,5.70
2019-05-07T18:50:05.735Z,6.80
2019-05-07T18:52:32.529Z,4.90
2019-05-07T18:54:59.447Z,5.50
2019-05-07T18:57:26.175Z,5.23
2019-05-07T18:59:53.745Z,5.37
2019-05-07T19:02:22.410Z,5.13
2019-05-07T19:04:47.230Z,4.47
2019-05-07T19:07:13.988Z,5.10
2019-05-07T19:09:42.392Z,5.27
2019-05-07T19:12:07.467Z,4.87
2019-05-07T19:14:34.230Z,5.10
2019-05-07T19:17:03.024Z,4.60
2019-05-07T19:19:27.725Z,4.60
2019-05-07T19:21:54.471Z,5.47
2019-05-07T19:24:23.073Z,5.03
2019-05-07T19:26:47.958Z,6.00
2019-05-07T19:29:14.684Z,6.05
2019-05-07T19:31:41.877Z,5.10
2019-05-07T19:34:08.174Z,4.87
2019-05-07T19:36:34.945Z,5.40
2019-05-07T19:39:02.026Z,4.60
2019-05-07T19:41:28.474Z,4.87
2019-05-07T19:43:55.198Z,5.23
2019-05-07T19:46:22.822Z,6.30
2019-05-07T19:48:48.757Z,5.43
2019-05-07T19:51:15.514Z,5.90
2019-05-07T19:53:42.258Z,5.00
2019-05-07T19:56:14.318Z,5.50
2019-05-07T19:58:41.930Z,5.03
2019-05-07T20:01:07.798Z,5.57
2019-05-07T20:03:34.526Z,5.20
2019-05-07T20:06:02.417Z,6.33
2019-05-07T20:08:27.997Z,5.17
2019-05-07T20:10:58.323Z,5.27
2019-05-07T20:13:27.309Z,5.50
2019-05-07T20:15:55.377Z,5.27
2019-05-07T20:18:22.133Z,6.30
2019-05-07T20:20:48.869Z,5.63
2019-05-07T20:23:15.606Z,6.00
2019-05-07T20:25:42.341Z,5.60
2019-05-07T20:28:09.071Z,5.70
2019-05-07T20:30:35.912Z,5.70
2019-05-07T20:33:03.190Z,5.93
2019-05-07T20:35:29.802Z,5.63
2019-05-07T20:37:56.590Z,5.60
2019-05-07T20:40:23.318Z,5.47
2019-05-07T20:42:52.360Z,6.07
2019-05-07T20:45:16.787Z,5.47
2019-05-07T20:47:43.531Z,5.77
2019-05-07T20:50:12.551Z,5.70
2019-05-07T20:52:37.070Z,5.40
2019-05-07T20:55:08.210Z,5.80
2019-05-07T20:57:37.670Z,6.30
2019-05-07T21:00:05.158Z,6.00
2019-05-07T21:02:44.364Z,6.10
2019-05-07T21:04:58.643Z,5.47
2019-05-07T21:07:25.466Z,6.00
2019-05-07T21:09:53.019Z,6.17
2019-05-07T21:12:18.951Z,6.00
2019-05-07T21:14:45.766Z,5.90
2019-05-07T21:17:12.521Z,6.80
2019-05-07T21:19:39.248Z,6.30
2019-05-07T21:22:05.998Z,6.70
2019-05-07T21:24:33.188Z,6.13
2019-05-07T21:26:59.488Z,6.70
2019-05-07T21:29:26.209Z,6.50
2019-05-07T21:31:52.982Z,6.20
2019-05-07T21:34:19.715Z,6.23
2019-05-07T21:36:46.482Z,6.85
2019-05-07T21:39:13.341Z,6.77
2019-05-07T21:41:39.930Z,5.93
2019-05-07T21:44:06.662Z,5.90
2019-05-07T21:46:33.409Z,5.97
2019-05-07T21:49:02.417Z,6.50
2019-05-07T21:51:26.890Z,6.43
2019-05-07T21:54:15.118Z,7.10
2019-05-07T21:56:52.201Z,5.57
2019-05-07T21:59:19.286Z,6.30
2019-05-07T22:01:48.593Z,6.20
2019-05-07T22:04:15.342Z,6.40
2019-05-07T22:06:45.124Z,6.60
2019-05-07T22:09:08.806Z,6.37
2019-05-07T22:11:35.550Z,6.13
2019-05-07T22:14:02.374Z,6.60
2019-05-07T22:16:29.034Z,6.10
2019-05-07T22:18:55.790Z,5.73
2019-05-07T22:21:22.513Z,5.70
2019-05-07T22:23:49.257Z,6.30
2019-05-07T22:26:22.277Z,6.13
2019-05-07T22:28:42.793Z,7.20
2019-05-07T22:31:31.030Z,6.60
2019-05-07T22:34:03.175Z,7.37
2019-05-07T22:36:29.905Z,7.67
2019-05-07T22:38:56.666Z,6.90
2019-05-07T22:41:23.417Z,7.90
2019-05-07T22:43:50.200Z,7.20
2019-05-07T22:46:16.938Z,6.93
2019-05-07T22:48:43.684Z,7.20
2019-05-07T22:51:12.181Z,8.00
2019-05-07T22:53:37.242Z,8.13
2019-05-07T22:56:03.967Z,8.60
2019-05-07T22:58:34.872Z,8.27
2019-05-07T23:01:06.194Z,8.43
2019-05-07T23:03:32.944Z,8.40
2019-05-07T23:06:05.559Z,9.13
2019-05-07T23:08:32.870Z,9.13
2019-05-07T23:10:59.341Z,9.40
2019-05-07T23:13:26.092Z,10.50
2019-05-07T23:15:53.875Z,10.93
2019-05-07T23:18:19.571Z,10.50
2019-05-07T23:20:46.479Z,10.33
2019-05-07T23:23:14.235Z,10.13
2019-05-07T23:25:40.119Z,9.50
2019-05-07T23:28:06.840Z,9.40
2019-05-07T23:30:33.582Z,8.90
2019-05-07T23:33:02.401Z,9.43
2019-05-07T23:35:27.342Z,8.80
2019-05-07T23:37:54.054Z,8.80
2019-05-07T23:40:26.381Z,8.70
2019-05-07T23:42:53.128Z,9.73
2019-05-07T23:45:22.002Z,10.47
2019-05-07T23:47:46.606Z,10.07
2019-05-07T23:50:13.337Z,12.00
2019-05-07T23:52:44.009Z,9.77
2019-05-07T23:55:06.821Z,10.00
2019-05-07T23:57:33.545Z,9.10
